createdAt,value
2023-04-19T00:02:34.303Z,52.58
2023-04-19T00:05:22.394Z,52.72
2023-04-19T00:08:07.942Z,52.75
2023-04-19T00:10:53.323Z,52.73
2023-04-19T00:13:38.889Z,52.67
2023-04-19T00:16:24.295Z,52.77
2023-04-19T00:19:10.627Z,52.64
2023-04-19T00:21:56.465Z,52.61
2023-04-19T00:24:41.675Z,52.57
2023-04-19T00:27:26.902Z,52.68
2023-04-19T00:30:12.665Z,52.66
2023-04-19T00:32:58.375Z,52.71
2023-04-19T00:35:44.360Z,52.66
2023-04-19T00:38:31.574Z,52.72
2023-04-19T00:41:16.885Z,52.56
2023-04-19T00:44:02.242Z,52.48
2023-04-19T00:46:48.388Z,52.50
2023-04-19T00:49:35.716Z,52.63
2023-04-19T00:52:22.422Z,52.36
2023-04-19T00:55:08.632Z,52.57
2023-04-19T00:57:54.626Z,52.45
2023-04-19T01:00:40.233Z,52.58
2023-04-19T01:03:27.721Z,52.37
2023-04-19T01:06:14.272Z,52.49
2023-04-19T01:09:00.867Z,52.51
2023-04-19T01:11:46.487Z,52.37
2023-04-19T01:14:33.655Z,52.45
2023-04-19T01:17:19.834Z,52.45
2023-04-19T01:20:08.014Z,52.41
2023-04-19T01:22:53.458Z,52.49
2023-04-19T01:25:39.163Z,52.50
2023-04-19T01:28:24.968Z,52.40
2023-04-19T01:31:10.338Z,52.37
2023-04-19T01:33:55.691Z,52.44
2023-04-19T01:36:40.764Z,52.44
2023-04-19T01:39:27.303Z,52.56
2023-04-19T01:42:12.709Z,52.20
2023-04-19T01:44:58.102Z,52.37
2023-04-19T01:47:45.516Z,52.43
2023-04-19T01:50:31.782Z,52.42
2023-04-19T01:53:17.383Z,52.35
2023-04-19T01:56:02.581Z,52.41
2023-04-19T01:58:48.032Z,52.49
2023-04-19T02:01:33.258Z,52.46
2023-04-19T02:04:20.632Z,52.30
2023-04-19T02:07:06.143Z,52.38
2023-04-19T02:09:51.506Z,52.39
2023-04-19T02:12:38.736Z,52.29
2023-04-19T02:15:24.387Z,52.54
2023-04-19T02:18:09.834Z,52.47
2023-04-19T02:20:55.904Z,52.55
2023-04-19T02:23:41.426Z,52.53
2023-04-19T02:26:26.871Z,52.45
2023-04-19T02:29:12.286Z,52.47
2023-04-19T02:31:57.523Z,52.45
2023-04-19T02:34:42.894Z,52.39
2023-04-19T02:37:28.156Z,52.43
2023-04-19T02:40:16.131Z,52.35
2023-04-19T02:43:01.473Z,52.37
2023-04-19T02:45:46.860Z,52.21
2023-04-19T02:48:32.167Z,52.36
2023-04-19T02:51:17.727Z,52.27
2023-04-19T02:54:03.429Z,52.35
2023-04-19T02:56:49.042Z,52.27
2023-04-19T02:59:34.780Z,52.27
2023-04-19T03:02:22.878Z,52.33
2023-04-19T03:05:09.051Z,52.34
2023-04-19T03:07:54.184Z,52.35
2023-04-19T03:10:39.558Z,52.25
2023-04-19T03:13:24.949Z,52.35
2023-04-19T03:16:10.472Z,52.34
2023-04-19T03:18:56.457Z,52.45
2023-04-19T03:21:45.046Z,52.31
2023-04-19T03:24:30.858Z,52.37
2023-04-19T03:27:20.361Z,52.17
2023-04-19T03:30:14.059Z,52.25
2023-04-19T03:33:02.307Z,52.20
2023-04-19T03:35:48.618Z,52.36
2023-04-19T03:38:34.677Z,52.17
2023-04-19T03:41:26.602Z,52.29
2023-04-19T03:44:35.215Z,52.22
2023-04-19T03:47:23.296Z,52.18
2023-04-19T03:50:10.627Z,52.32
2023-04-19T03:52:57.371Z,52.28
2023-04-19T03:55:43.253Z,52.04
2023-04-19T03:58:29.078Z,52.29
2023-04-19T04:01:24.448Z,52.80
2023-04-19T04:04:12.747Z,52.79
2023-04-19T04:06:58.745Z,52.95
2023-04-19T04:09:45.199Z,53.20
2023-04-19T04:12:30.877Z,53.34
2023-04-19T04:15:18.339Z,53.37
2023-04-19T04:18:09.254Z,53.57
2023-04-19T04:20:56.663Z,53.67
2023-04-19T04:23:42.348Z,53.78
2023-04-19T04:26:35.336Z,53.60
2023-04-19T04:29:41.378Z,53.47
2023-04-19T04:32:27.644Z,53.67
2023-04-19T04:35:17.822Z,53.55
2023-04-19T04:38:23.585Z,53.39
2023-04-19T04:41:12.159Z,53.54
2023-04-19T04:46:50.252Z,53.48
2023-04-19T04:49:41.641Z,52.78
2023-04-19T04:52:27.213Z,52.90
2023-04-19T04:55:25.712Z,53.36
2023-04-19T04:58:12.593Z,53.02
2023-04-19T05:01:19.440Z,53.15
2023-04-19T05:04:06.464Z,52.84
2023-04-19T05:06:52.198Z,52.91
2023-04-19T05:09:42.524Z,52.85
2023-04-19T05:12:31.375Z,52.97
2023-04-19T05:15:17.188Z,53.15
2023-04-19T05:18:07.483Z,53.14
2023-04-19T05:20:53.456Z,52.93
2023-04-19T05:23:43.683Z,52.93
2023-04-19T05:26:31.014Z,52.92
2023-04-19T05:29:17.875Z,52.72
2023-04-19T05:32:08.025Z,52.79
2023-04-19T05:35:01.416Z,52.77
2023-04-19T05:37:46.997Z,52.75
2023-04-19T05:40:32.507Z,52.88
2023-04-19T05:43:18.361Z,52.90
2023-04-19T05:46:03.837Z,53.17
2023-04-19T05:48:49.046Z,53.00
2023-04-19T05:51:55.494Z,49.54
2023-04-19T05:54:48.494Z,50.76
2023-04-19T05:57:33.883Z,51.76
2023-04-19T06:00:19.421Z,52.00
2023-04-19T06:03:14.815Z,52.44
2023-04-19T06:06:00.615Z,52.78
2023-04-19T06:08:46.318Z,47.95
2023-04-19T06:11:39.328Z,50.04
2023-04-19T06:14:32.952Z,51.33
2023-04-19T06:17:23.540Z,52.19
2023-04-19T06:20:10.322Z,52.60
2023-04-19T06:22:55.780Z,52.26
2023-04-19T06:25:41.218Z,52.26
2023-04-19T06:28:26.810Z,52.75
2023-04-19T06:31:12.534Z,53.05
2023-04-19T06:33:57.776Z,53.04
2023-04-19T06:36:43.042Z,52.92
2023-04-19T06:39:28.649Z,52.72
2023-04-19T06:42:14.376Z,53.28
2023-04-19T06:44:59.615Z,53.02
2023-04-19T06:47:44.961Z,52.64
2023-04-19T06:50:30.333Z,52.72
2023-04-19T06:53:15.717Z,52.64
2023-04-19T06:56:02.382Z,52.53
2023-04-19T06:58:47.974Z,52.43
2023-04-19T07:01:33.322Z,52.43
2023-04-19T07:04:19.327Z,52.42
2023-04-19T07:07:04.946Z,52.47
2023-04-19T07:09:50.190Z,52.41
2023-04-19T07:12:35.664Z,52.55
2023-04-19T07:15:21.287Z,52.14
2023-04-19T07:18:07.162Z,52.46
2023-04-19T07:20:52.816Z,52.40
2023-04-19T07:23:38.080Z,52.57
2023-04-19T07:26:23.536Z,52.42
2023-04-19T07:29:08.704Z,52.35
2023-04-19T07:31:55.547Z,52.14
2023-04-19T07:34:42.456Z,52.28
2023-04-19T07:37:28.501Z,51.63
2023-04-19T07:40:14.224Z,50.21
2023-04-19T07:42:59.607Z,46.56
2023-04-19T07:45:44.946Z,43.68
2023-04-19T07:48:30.228Z,41.19
2023-04-19T07:51:17.138Z,36.96
2023-04-19T07:54:02.336Z,35.54
2023-04-19T07:56:47.624Z,37.99
2023-04-19T07:59:33.511Z,40.88
2023-04-19T08:02:19.270Z,42.56
2023-04-19T08:05:05.500Z,43.19
2023-04-19T08:07:52.426Z,44.19
2023-04-19T08:10:38.098Z,44.61
2023-04-19T08:13:23.614Z,45.63
2023-04-19T08:18:57.281Z,46.08
2023-04-19T08:21:42.355Z,46.27
2023-04-19T08:24:27.772Z,46.63
2023-04-19T08:27:13.025Z,46.88
2023-04-19T08:29:58.151Z,46.67
2023-04-19T08:32:43.559Z,46.85
2023-04-19T08:35:28.758Z,46.81
2023-04-19T08:38:14.137Z,46.96
2023-04-19T08:41:01.052Z,47.10
2023-04-19T08:43:49.964Z,47.23
2023-04-19T08:46:35.478Z,47.24
2023-04-19T08:49:22.227Z,47.47
2023-04-19T08:52:09.376Z,47.51
2023-04-19T08:54:55.449Z,47.74
2023-04-19T08:57:41.605Z,47.82
2023-04-19T09:00:27.139Z,47.96
2023-04-19T09:03:12.634Z,47.91
2023-04-19T09:05:58.385Z,47.78
2023-04-19T09:08:44.201Z,47.76
2023-04-19T09:11:40.226Z,47.89
2023-04-19T09:14:27.308Z,47.76
2023-04-19T09:17:16.619Z,47.91
2023-04-19T09:20:01.809Z,48.24
2023-04-19T09:23:04.761Z,45.05
2023-04-19T09:29:06.988Z,47.39
2023-04-19T09:31:59.792Z,44.46
2023-04-19T09:35:11.747Z,46.00
2023-04-19T09:38:06.044Z,48.09
2023-04-19T09:40:52.804Z,48.53
2023-04-19T09:44:01.557Z,49.67
2023-04-19T09:46:45.675Z,48.98
2023-04-19T09:52:22.589Z,48.91
2023-04-19T09:55:22.192Z,49.03
2023-04-19T09:58:12.162Z,49.10
2023-04-19T10:01:10.790Z,48.80
2023-04-19T10:04:10.309Z,48.89
2023-04-19T10:07:29.041Z,48.75
2023-04-19T10:10:19.477Z,48.97
2023-04-19T10:13:19.007Z,48.86
2023-04-19T10:16:18.304Z,48.83
2023-04-19T10:19:09.874Z,48.67
2023-04-19T10:21:56.666Z,48.87
2023-04-19T10:25:15.703Z,48.75
2023-04-19T10:28:01.456Z,48.50
2023-04-19T10:31:03.008Z,48.65
2023-04-19T10:33:48.665Z,48.72
2023-04-19T10:36:34.206Z,48.50
2023-04-19T10:39:58.085Z,48.36
2023-04-19T10:43:11.006Z,46.96
2023-04-19T10:46:01.484Z,47.80
2023-04-19T10:48:54.104Z,48.29
2023-04-19T10:51:43.375Z,48.46
2023-04-19T10:54:34.455Z,48.58
2023-04-19T10:57:19.918Z,48.70
2023-04-19T11:00:19.414Z,48.98
2023-04-19T11:03:42.987Z,48.90
2023-04-19T11:06:28.498Z,49.11
2023-04-19T11:09:25.941Z,49.30
2023-04-19T11:12:16.994Z,49.23
2023-04-19T11:15:03.323Z,49.20
2023-04-19T11:18:00.816Z,49.25
2023-04-19T11:20:54.789Z,48.34
2023-04-19T11:23:40.880Z,48.79
2023-04-19T11:26:26.681Z,49.15
2023-04-19T11:29:12.789Z,49.20
2023-04-19T11:32:00.366Z,49.35
2023-04-19T11:34:45.690Z,49.40
2023-04-19T11:37:36.394Z,49.52
2023-04-19T11:40:23.736Z,49.87
2023-04-19T11:43:09.098Z,49.99
2023-04-19T11:45:54.302Z,49.81
2023-04-19T11:48:50.504Z,49.99
2023-04-19T11:51:35.983Z,49.84
2023-04-19T11:54:23.726Z,49.99
2023-04-19T11:57:09.267Z,47.48
2023-04-19T12:00:12.537Z,48.10
2023-04-19T12:02:59.699Z,48.92
2023-04-19T12:05:54.309Z,49.24
2023-04-19T12:08:44.078Z,47.06
2023-04-19T12:11:44.736Z,48.23
2023-04-19T12:14:31.634Z,48.89
2023-04-19T12:17:16.979Z,48.98
2023-04-19T12:20:03.395Z,49.80
2023-04-19T12:22:48.669Z,50.07
2023-04-19T12:25:35.015Z,49.88
2023-04-19T12:28:20.550Z,50.15
2023-04-19T12:31:06.122Z,50.44
2023-04-19T12:33:51.700Z,50.58
2023-04-19T12:36:37.129Z,50.25
2023-04-19T12:39:23.276Z,50.30
2023-04-19T12:42:08.766Z,50.35
2023-04-19T12:44:53.949Z,50.14
2023-04-19T12:47:43.983Z,50.06
2023-04-19T12:50:29.182Z,49.89
2023-04-19T12:53:14.501Z,49.81
2023-04-19T12:56:00.497Z,48.83
2023-04-19T12:58:45.921Z,48.28
2023-04-19T13:01:32.994Z,48.59
2023-04-19T13:04:20.137Z,49.03
2023-04-19T13:07:06.261Z,49.06
2023-04-19T13:09:51.586Z,49.14
2023-04-19T13:12:37.301Z,49.05
2023-04-19T13:15:22.903Z,49.24
2023-04-19T13:18:08.278Z,49.28
2023-04-19T13:20:56.784Z,49.44
2023-04-19T13:23:44.032Z,49.48
2023-04-19T13:26:29.740Z,49.40
2023-04-19T13:29:15.557Z,49.33
2023-04-19T13:32:01.590Z,49.14
2023-04-19T13:34:47.213Z,49.23
2023-04-19T13:37:32.596Z,49.19
2023-04-19T13:40:19.783Z,49.25
2023-04-19T13:43:05.422Z,49.08
2023-04-19T13:45:50.836Z,49.15
2023-04-19T13:48:36.337Z,48.91
2023-04-19T13:51:21.869Z,49.15
2023-04-19T13:54:07.704Z,49.33
2023-04-19T13:56:53.458Z,49.33
2023-04-19T13:59:38.946Z,49.15
2023-04-19T14:02:24.707Z,49.54
2023-04-19T14:05:10.786Z,49.51
2023-04-19T14:07:56.413Z,49.30
2023-04-19T14:13:45.214Z,49.55
2023-04-19T14:16:31.046Z,50.12
2023-04-19T14:19:16.519Z,49.74
2023-04-19T14:22:02.350Z,49.65
2023-04-19T14:24:47.771Z,49.55
2023-04-19T14:27:33.346Z,49.30
2023-04-19T14:30:20.203Z,49.13
2023-04-19T14:33:06.286Z,48.90
2023-04-19T14:35:51.953Z,49.05
2023-04-19T14:38:37.532Z,49.34
2023-04-19T14:41:23.376Z,48.05
2023-04-19T14:44:09.052Z,49.69
2023-04-19T14:46:54.522Z,51.23
2023-04-19T14:49:41.975Z,51.93
2023-04-19T14:52:27.855Z,51.24
2023-04-19T14:55:14.828Z,49.26
2023-04-19T14:58:00.214Z,50.67
2023-04-19T15:00:45.948Z,51.48
2023-04-19T15:03:32.708Z,51.40
2023-04-19T15:06:18.530Z,51.25
2023-04-19T15:09:04.196Z,51.75
2023-04-19T15:11:49.880Z,51.33
2023-04-19T15:14:35.473Z,51.01
2023-04-19T15:17:21.205Z,51.51
2023-04-19T15:20:07.762Z,51.46
2023-04-19T15:22:53.715Z,52.17
2023-04-19T15:25:39.287Z,51.35
2023-04-19T15:28:25.463Z,51.33
2023-04-19T15:31:11.612Z,51.59
2023-04-19T15:33:57.227Z,48.41
2023-04-19T15:36:42.510Z,46.11
2023-04-19T15:39:27.864Z,46.39
2023-04-19T15:42:13.514Z,48.13
2023-04-19T15:44:59.002Z,49.03
2023-04-19T15:47:44.377Z,48.83
2023-04-19T15:50:29.701Z,48.97
2023-04-19T15:53:15.530Z,48.22
2023-04-19T15:56:00.997Z,48.55
2023-04-19T15:58:46.317Z,47.43
2023-04-19T16:01:31.803Z,48.46
2023-04-19T16:04:17.286Z,49.33
2023-04-19T16:07:02.892Z,49.78
2023-04-19T16:09:48.235Z,50.13
2023-04-19T16:12:33.379Z,50.47
2023-04-19T16:15:18.891Z,50.56
2023-04-19T16:18:04.492Z,50.71
2023-04-19T16:20:50.037Z,50.78
2023-04-19T16:23:35.696Z,50.55
2023-04-19T16:26:22.241Z,50.79
2023-04-19T16:29:08.037Z,50.87
2023-04-19T16:31:53.544Z,51.07
2023-04-19T16:34:39.172Z,51.05
2023-04-19T16:37:24.685Z,51.15
2023-04-19T16:40:11.112Z,51.03
2023-04-19T16:42:57.895Z,50.94
2023-04-19T16:45:43.614Z,51.20
2023-04-19T16:48:28.874Z,51.34
2023-04-19T16:51:14.416Z,51.06
2023-04-19T16:53:59.870Z,51.23
2023-04-19T16:56:45.833Z,51.14
2023-04-19T16:59:31.842Z,50.93
2023-04-19T17:02:17.643Z,51.14
2023-04-19T17:05:03.783Z,51.10
2023-04-19T17:07:50.509Z,51.24
2023-04-19T17:10:36.062Z,51.38
2023-04-19T17:13:21.495Z,51.55
2023-04-19T17:16:07.443Z,51.44
2023-04-19T17:18:56.302Z,51.74
2023-04-19T17:21:42.402Z,51.88
2023-04-19T17:24:28.700Z,51.98
2023-04-19T17:27:14.707Z,51.99
2023-04-19T17:30:00.658Z,52.06
2023-04-19T17:32:46.511Z,52.23
2023-04-19T17:35:32.406Z,52.22
2023-04-19T17:38:17.992Z,52.17
2023-04-19T17:41:03.759Z,52.33
2023-04-19T17:43:50.764Z,52.38
2023-04-19T17:46:36.676Z,52.19
2023-04-19T17:49:22.354Z,52.35
2023-04-19T17:52:07.677Z,51.82
2023-04-19T17:54:53.019Z,52.26
2023-04-19T17:57:38.327Z,52.12
2023-04-19T18:00:24.988Z,52.24
2023-04-19T18:03:11.552Z,52.34
2023-04-19T18:05:57.510Z,52.18
2023-04-19T18:08:46.183Z,52.15
2023-04-19T18:11:31.667Z,52.31
2023-04-19T18:14:17.127Z,52.12
2023-04-19T18:17:05.857Z,52.00
2023-04-19T18:19:51.404Z,51.83
2023-04-19T18:22:36.891Z,51.94
2023-04-19T18:25:22.195Z,52.29
2023-04-19T18:28:07.828Z,52.28
2023-04-19T18:30:53.373Z,52.01
2023-04-19T18:33:39.027Z,51.98
2023-04-19T18:36:24.737Z,51.87
2023-04-19T18:39:11.552Z,51.74
2023-04-19T18:41:58.576Z,51.87
2023-04-19T18:44:53.612Z,51.30
2023-04-19T18:47:40.139Z,51.11
2023-04-19T18:50:25.298Z,51.18
2023-04-19T18:53:10.485Z,51.22
2023-04-19T18:55:59.369Z,51.41
2023-04-19T18:58:44.847Z,51.46
2023-04-19T19:01:31.171Z,51.59
2023-04-19T19:04:42.759Z,51.62
2023-04-19T19:10:19.492Z,51.74
2023-04-19T19:13:07.244Z,51.84
2023-04-19T19:15:52.456Z,51.95
2023-04-19T19:18:37.793Z,52.12
2023-04-19T19:21:23.298Z,52.07
2023-04-19T19:24:08.617Z,52.30
2023-04-19T19:26:56.353Z,52.24
2023-04-19T19:29:41.652Z,52.37
2023-04-19T19:32:27.104Z,52.38
2023-04-19T19:35:13.116Z,52.37
2023-04-19T19:37:58.428Z,52.56
2023-04-19T19:41:17.700Z,52.53
2023-04-19T19:43:49.258Z,52.47
2023-04-19T19:46:36.699Z,52.45
2023-04-19T19:49:22.264Z,52.67
2023-04-19T19:52:08.133Z,52.60
2023-04-19T19:54:53.867Z,52.59
2023-04-19T19:58:14.148Z,52.79
2023-04-19T20:00:51.171Z,52.87
2023-04-19T20:03:38.392Z,52.70
2023-04-19T20:09:12.162Z,52.58
2023-04-19T20:11:58.437Z,52.46
2023-04-19T20:14:43.751Z,52.42
2023-04-19T20:17:29.115Z,52.31
2023-04-19T20:20:14.931Z,52.20
2023-04-19T20:23:00.260Z,52.19
2023-04-19T20:25:46.422Z,52.24
2023-04-19T20:28:32.096Z,52.08
2023-04-19T20:31:17.934Z,51.78
2023-04-19T20:34:03.630Z,51.93
2023-04-19T20:36:49.200Z,51.79
2023-04-19T20:39:34.437Z,51.79
2023-04-19T20:42:19.796Z,51.61
2023-04-19T20:45:06.776Z,51.68
2023-04-19T20:47:54.181Z,51.59
2023-04-19T20:50:42.348Z,51.61
2023-04-19T20:53:27.752Z,51.56
2023-04-19T20:56:12.977Z,51.79
2023-04-19T20:58:58.291Z,51.53
2023-04-19T21:01:43.675Z,51.46
2023-04-19T21:04:29.298Z,51.50
2023-04-19T21:07:14.915Z,51.57
2023-04-19T21:10:00.457Z,51.62
2023-04-19T21:12:46.003Z,51.47
2023-04-19T21:15:31.558Z,51.54
2023-04-19T21:18:17.989Z,51.65
2023-04-19T21:21:03.469Z,51.51
2023-04-19T21:23:48.771Z,51.49
2023-04-19T21:26:34.386Z,51.56
2023-04-19T21:29:20.439Z,51.58
2023-04-19T21:32:06.030Z,51.58
2023-04-19T21:34:51.315Z,51.40
2023-04-19T21:37:37.552Z,51.39
2023-04-19T21:40:23.063Z,51.22
2023-04-19T21:43:08.336Z,51.34
2023-04-19T21:45:53.626Z,51.21
2023-04-19T21:48:39.032Z,51.28
2023-04-19T21:51:24.385Z,51.22
2023-04-19T21:54:09.668Z,51.23
2023-04-19T21:56:55.063Z,51.17
2023-04-19T21:59:40.552Z,51.13
2023-04-19T22:02:26.312Z,50.92
2023-04-19T22:05:13.663Z,51.10
2023-04-19T22:07:59.006Z,51.05
2023-04-19T22:10:44.848Z,51.21
2023-04-19T22:13:30.605Z,50.99
2023-04-19T22:16:16.033Z,51.04
2023-04-19T22:19:02.374Z,51.20
2023-04-19T22:21:47.668Z,51.14
2023-04-19T22:24:33.350Z,51.19
2023-04-19T22:27:20.045Z,51.11
2023-04-19T22:30:06.542Z,51.07
2023-04-19T22:32:52.156Z,50.99
2023-04-19T22:35:37.341Z,51.04
2023-04-19T22:38:22.616Z,51.08
2023-04-19T22:41:07.960Z,50.91
2023-04-19T22:43:53.017Z,51.09
2023-04-19T22:46:38.956Z,50.86
2023-04-19T22:49:24.093Z,50.95
2023-04-19T22:52:09.545Z,50.93
2023-04-19T22:54:54.922Z,50.88
2023-04-19T22:57:41.389Z,51.01
2023-04-19T23:00:27.045Z,50.86
2023-04-19T23:03:12.312Z,51.00
2023-04-19T23:05:57.602Z,50.81
2023-04-19T23:08:42.900Z,50.93
2023-04-19T23:11:29.832Z,50.83
2023-04-19T23:14:18.515Z,50.85
2023-04-19T23:17:04.045Z,50.74
2023-04-19T23:19:49.234Z,50.86
2023-04-19T23:22:34.757Z,50.79
2023-04-19T23:25:20.344Z,50.70
2023-04-19T23:28:06.101Z,50.72
2023-04-19T23:30:51.796Z,50.74
2023-04-19T23:33:37.074Z,50.66
2023-04-19T23:36:22.609Z,50.83
2023-04-19T23:39:07.820Z,50.67
2023-04-19T23:41:53.046Z,50.61
2023-04-19T23:44:39.341Z,50.72
2023-04-19T23:47:24.858Z,50.70
2023-04-19T23:50:10.570Z,50.45
2023-04-19T23:52:56.124Z,50.66
2023-04-19T23:55:41.812Z,50.49
2023-04-19T23:58:27.013Z,50.60
